Timeline UpdatesTrip UpdatesNews PostsPvt PostsTravel TipsAdmin PostsConv PostsFollowed PostsChat RequestsBlog PostsPNR Posts

Disclaimer
Search
 
 
Fri Apr 25, 2014 03:59:58 ISTHomeTrainsΣChainsAtlasPNRForumGalleryNewsFAQTripsMembersLoginFeedback
No Recent News for this Train
Other Trains in the News **new
Latest...
Departing/Terminating at Bhagat ki Kothi permanently
Tue Jan 07, 2014 (08:27AM)
⇐ Return Journey: Train# 16507

16508/Bangalore -Bhagat Ki Kothi (Jodhpur) Express

Nov 25 2013 (9:01AM)
Change Departure Station:
Change Arrival Station:
Post a Train Travel TipPost a Train Travel Tip **new
Post a Comment/Question/Picture/VideoPost a Comment/Question/Picture/Video
Pantry/Catering
✓ Pantry Car Avbl
✓ Catering Avbl
good
RSA - Rake Sharing
Rake/Coach Composition
Loco-[SLR]-[UR]-[UR]-[A1]-[A2]-[B1]-[B2]-[B3]-[S1]-[S2]-[S3]-[PC]-[S4]-[S5]-[S6]-[S7]-[S8]-[S9]-[S10]-[S11]-[S12][UR]-[SLR]
Loco
Hubli shed WDP-4
News    PNR    Forum    Time-Table    Availability    Fare Chart    Map    Arr/Dep History    Trips    Gallery    ΣChains    X/O    Timeline    
Travel Time: 8h 30m    9 halts    Distance: 470 km    Avg Speed: 55 km/hr
Type: Mail/Express
Zone: SWR/South Western
Departs @ 21:55 (Avg on time)
Platform# 8
 M W   
Bangalore City Junction/SBC 
Arrives @ 06:25 +1 night (Avg 20m late)
Platform# 4
  T T  
Hubli Junction/UBL 

9 halts. 64 intermediate Stations between Bangalore City Junction and Hubli Junction

Show ALL intermediate Stations  Show Old Time-Table

#CodeStation NameX/OArrivesAvgDepartsAvgHaltPFDay#KmSpeedElevZoneAddress
1SBC»Bangalore City Junction (10)»  -21:55+0810.034903mSWRBengaluru-560023, Karnataka
2YPRYesvantpur Junction (6)  22:05+422:07+42m315.669919mSWRTel:080-23371444, Karnataka
3TKTumkur (3)  23:03+623:05+62m1169.571823mSWRTumkur, Karnataka
4TTRTiptur (4)  00:05+1800:06+221m22140.639860mSWRTiptur, Karnataka
5ASKArsikere Junction (3)X  00:45+900:50+125m--2166.156816mSWRArsikere, Karnataka
6RRBBirur Junction (3)X  01:38+801:40+92m12211.164802mSWRBirur, Karnataka
7DVGDavangere (2)  03:27+2503:30+253m--2326.043598mSWRDavanagere, Karnataka
8HRRHarihar (3)  03:48+2403:50+302m--2338.958553mSWRHarihar, Karnataka
9RNRRanibennur (3)X  04:14+3704:15+391m--2362.267583mSWRRanebennur, Karnataka
10HVRHaveri (3)  04:44+3604:45+361m--2394.845558mSWRHaveri, Karnataka
11UBL•Hubli Junction (5)•  06:25+2006:35+3110m42469.950640mSWRHubli - 580020, Karnataka
12DWRDharwad (4)  06:59+3607:00+371m12489.951737mSWRDharwad 580001, Karnataka
13LDLonda Junction (4)  08:23+2908:25+292m22560.444643mSWRLonda, Karnataka
14BGMBelgaum (3)  09:35+2809:40+295m12611.750752mSWRBelgaum 590001, Karnataka
15GPBGhatprabha (2)  10:49+1110:50+101m12669.543621mSWRGhatprabha, Karnataka
16MRJMiraj Junction (6)  12:40+612:45+185m12749.137554mCRMiraj 416410, Maharashtra
17SLISangli (3)  12:57+2113:00+213m12756.469559mCRSangli, Maharashtra
18KRDKarad (3)  13:59+1814:00+201m12824.359597mCRDist- Satara., Maharashtra
19STRSatara (3)  15:00+1815:03+203m22882.940637mCRSatara, Maharashtra
20PUNEPune Junction (6)  18:40+418:50+810m121028.755556mCRPune 411001, Maharashtra
21LNLLonavala (3)  19:59+520:00+71m221092.335623mCRLonavala 410401, Maharashtra
22KJTKarjat Junction (4)  20:49+1120:50+121m221121.05657mCRKarjat, Maharashtra
23KYNKalyan Junction (8)X  21:40+1121:45+95m621167.84510mCRKalyan 421301, Maharashtra
24BIRDBhiwandi Road (4)  22:09+1222:10+131m--21185.84126mCRBhiwandi, Maharashtra
25BSRVasai Road (7)  22:50+022:55-5m621213.1647mWRThane-401202, Maharashtra
26VAPIVapi (3)X  00:49+1400:50+151m--31334.16327mWRVapi, Gujarat
27BLValsad (3)X  01:15+1501:16+241m231360.44315mWRValsad, Gujarat
28NVSNavsari (3)XO  02:10+2102:11+221m131399.55214mWRNavsari, Gujarat
29STSurat (4)X  02:45+1702:55+1710m331429.17919mWRSurat 395001, Gujarat
30BHBharuch Junction (5)X  03:40+2503:41+261m331488.47419mWRBharuch, Gujarat
31BRCVadodara Junction (7)X  04:38+2304:55+2117m231558.96536mWRVadodara, Gujarat
32ANNDAnand Junction (6)XO  05:28+2705:29+271m--31594.66944mWRAnand, Gujarat
33NDNadiad Junction (4)X  05:45+3705:46+371m--31613.14637mWRNadiad, Gujarat
34ADIAhmedabad Junction (12)X  06:45+3407:05+3920m631658.73351mWRAhmedabad, Gujarat
35MSHMahesana Junction (6)  09:19+2509:20+271m--31731.76595mWRMehsana, Gujarat
36SIDSiddhpur  09:53+2909:54+291m--31767.332136mWRState Highway 41, Gujarat
37PNUPalanpur Junction (5)X  10:49+1410:50+211m--31796.757216mWRPalanpur, Gujarat
38ABRAbu Road (3)X  11:45+2811:55+2910m231849.370264mNWRSirohi Dist, Rajasthan
39JWBJawai BandhX  13:06+3413:07+361m--31932.049292mNWRPali, Rajasthan
40FAFalna (2)  13:27+3113:28+321m--31948.249282mNWRFalna, Rajasthan
41MJMarwar Junction (4)  14:50+1414:55+155m132014.781267mNWRMarwar Junction, Rajasthan
42PMYPali Marwar (2)  15:18+2115:19+231m132045.675221mNWRPali, Rajasthan
43LUNILuni Junction (3)X  15:52+2315:55+233m--32086.845180mNWRLuni, Rajasthan
44BGKTBhagat Ki Kothi (3)16:33+17---32115.1-229mNWRJodhpur, Rajasthan
Scroll to Top
Scroll to Bottom